createdAt,value
2017-04-17T00:00:43.657Z,64.08
2017-04-17T00:01:44.269Z,64.18
2017-04-17T00:02:44.883Z,63.89
2017-04-17T00:03:45.475Z,63.99
2017-04-17T00:04:46.069Z,64.37
2017-04-17T00:05:46.669Z,63.99
2017-04-17T00:06:47.277Z,64.08
2017-04-17T00:07:47.878Z,63.89
2017-04-17T00:08:48.490Z,64.28
2017-04-17T00:09:49.089Z,64.84
2017-04-17T00:10:49.707Z,64.94
2017-04-17T00:11:50.305Z,64.94
2017-04-17T00:12:50.898Z,64.56
2017-04-17T00:13:51.493Z,64.47
2017-04-17T00:14:52.088Z,64.56
2017-04-17T00:15:52.684Z,64.65
2017-04-17T00:16:53.296Z,64.47
2017-04-17T00:17:53.891Z,64.56
2017-04-17T00:18:54.487Z,64.65
2017-04-17T00:19:55.082Z,64.75
2017-04-17T00:20:55.717Z,64.28
2017-04-17T00:21:56.318Z,64.56
2017-04-17T00:22:56.911Z,64.56
2017-04-17T00:23:57.505Z,64.65
2017-04-17T00:24:58.106Z,64.65
2017-04-17T00:25:58.702Z,64.47
2017-04-17T00:26:59.294Z,64.65
2017-04-17T00:27:59.890Z,64.37
2017-04-17T00:29:00.485Z,64.65
2017-04-17T00:30:01.086Z,64.47
2017-04-17T00:31:01.689Z,64.18
2017-04-17T00:32:02.279Z,64.37
2017-04-17T00:33:02.873Z,64.65
2017-04-17T00:34:03.470Z,64.65
2017-04-17T00:35:04.088Z,64.47
2017-04-17T00:36:04.679Z,64.56
2017-04-17T00:37:05.276Z,64.28
2017-04-17T00:38:05.872Z,64.65
2017-04-17T00:39:06.483Z,64.65
2017-04-17T00:40:07.093Z,64.65
2017-04-17T00:41:07.691Z,64.18
2017-04-17T00:42:08.289Z,64.37
2017-04-17T00:43:08.881Z,64.94
2017-04-17T00:44:09.476Z,64.65
2017-04-17T00:45:10.072Z,63.99
2017-04-17T00:46:10.675Z,64.47
2017-04-17T00:47:11.291Z,64.28
2017-04-17T00:48:11.891Z,64.37
2017-04-17T00:49:12.502Z,64.75
2017-04-17T00:50:13.097Z,64.65
2017-04-17T00:51:13.698Z,64.65
2017-04-17T00:52:14.309Z,64.84
2017-04-17T00:53:14.906Z,64.65
2017-04-17T00:54:15.509Z,64.37
2017-04-17T00:55:16.101Z,64.65
2017-04-17T00:56:16.712Z,64.47
2017-04-17T00:57:17.307Z,64.65
2017-04-17T00:58:17.904Z,64.28
2017-04-17T00:59:18.501Z,64.47
2017-04-17T01:00:19.096Z,64.47
2017-04-17T01:01:19.692Z,64.75
2017-04-17T01:02:20.288Z,64.56
2017-04-17T01:03:20.899Z,64.75
2017-04-17T01:04:21.499Z,64.94
2017-04-17T01:05:22.093Z,64.94
2017-04-17T01:06:22.687Z,64.94
2017-04-17T01:07:23.287Z,64.75
2017-04-17T01:08:23.883Z,64.65
2017-04-17T01:09:24.491Z,64.28
2017-04-17T01:10:25.103Z,64.47
2017-04-17T01:11:25.699Z,64.37
2017-04-17T01:12:26.299Z,64.75
2017-04-17T01:13:26.890Z,64.47
2017-04-17T01:14:27.490Z,64.37
2017-04-17T01:15:28.089Z,64.75
2017-04-17T01:16:28.682Z,64.56
2017-04-17T01:17:29.284Z,64.75
2017-04-17T01:18:29.874Z,64.65
2017-04-17T01:19:30.469Z,64.65
2017-04-17T01:20:31.065Z,64.47
2017-04-17T01:21:31.660Z,64.18
2017-04-17T01:22:32.256Z,64.65
2017-04-17T01:23:32.859Z,64.47
2017-04-17T01:24:33.454Z,64.47
2017-04-17T01:25:34.051Z,64.47
2017-04-17T01:26:34.668Z,64.47
2017-04-17T01:27:35.268Z,64.47
2017-04-17T01:28:35.859Z,64.37
2017-04-17T01:29:36.461Z,64.47
2017-04-17T01:30:37.054Z,64.65
2017-04-17T01:31:37.651Z,64.37
2017-04-17T01:32:38.254Z,64.28
2017-04-17T01:33:38.846Z,64.18
2017-04-17T01:34:39.446Z,64.37
2017-04-17T01:35:40.058Z,64.28
2017-04-17T01:36:40.660Z,64.47
2017-04-17T01:37:41.253Z,64.37
2017-04-17T01:38:41.849Z,64.47
2017-04-17T01:39:42.444Z,64.47
2017-04-17T01:40:43.040Z,64.18
2017-04-17T01:41:43.638Z,64.75
2017-04-17T01:42:44.231Z,64.75
2017-04-17T01:43:44.826Z,64.28
2017-04-17T01:44:45.430Z,64.65
2017-04-17T01:45:46.024Z,64.28
2017-04-17T01:46:46.639Z,64.65
2017-04-17T01:47:47.220Z,64.56
2017-04-17T01:48:47.814Z,64.75
2017-04-17T01:49:48.415Z,64.47
2017-04-17T01:50:49.011Z,64.28
2017-04-17T01:51:49.602Z,64.84
2017-04-17T01:52:50.199Z,64.94
2017-04-17T01:53:50.794Z,64.65
2017-04-17T01:54:51.389Z,64.56
2017-04-17T01:55:51.986Z,64.65
2017-04-17T01:56:52.597Z,64.75
2017-04-17T01:57:53.192Z,64.84
2017-04-17T01:58:53.803Z,65.13
2017-04-17T01:59:54.398Z,65.13
2017-04-17T02:00:54.993Z,65.03
2017-04-17T02:01:55.604Z,64.84
2017-04-17T02:02:56.205Z,65.03
2017-04-17T02:03:56.798Z,65.03
2017-04-17T02:04:57.400Z,65.03
2017-04-17T02:05:58.001Z,64.94
2017-04-17T02:06:58.594Z,64.94
2017-04-17T02:07:59.188Z,65.03
2017-04-17T02:08:59.790Z,64.94
2017-04-17T02:10:00.382Z,65.03
2017-04-17T02:11:00.982Z,64.75
2017-04-17T02:12:01.599Z,64.75
2017-04-17T02:13:02.196Z,64.75
2017-04-17T02:14:02.789Z,64.84
2017-04-17T02:15:03.384Z,65.23
2017-04-17T02:16:03.993Z,65.13
2017-04-17T02:17:04.588Z,64.75
2017-04-17T02:18:05.393Z,64.94
2017-04-17T02:19:05.989Z,64.94
2017-04-17T02:20:06.584Z,64.94
2017-04-17T02:21:07.180Z,64.75
2017-04-17T02:22:07.797Z,64.65
2017-04-17T02:23:08.390Z,65.23
2017-04-17T02:24:08.987Z,65.13
2017-04-17T02:25:09.581Z,65.51
2017-04-17T02:26:10.178Z,65.32
2017-04-17T02:27:10.772Z,65.29
2017-04-17T02:28:11.373Z,65.10
2017-04-17T02:29:11.987Z,65.48
2017-04-17T02:30:12.578Z,65.29
2017-04-17T02:31:13.175Z,65.58
2017-04-17T02:32:13.786Z,65.61
2017-04-17T02:33:14.380Z,65.42
2017-04-17T02:34:14.982Z,65.51
2017-04-17T02:35:15.575Z,65.89
2017-04-17T02:36:16.169Z,65.51
2017-04-17T02:37:16.767Z,65.70
2017-04-17T02:38:17.367Z,65.89
2017-04-17T02:39:17.960Z,65.42
2017-04-17T02:40:18.555Z,65.32
2017-04-17T02:41:19.154Z,65.42
2017-04-17T02:42:19.747Z,65.32
2017-04-17T02:43:20.341Z,65.23
2017-04-17T02:44:20.952Z,64.94
2017-04-17T02:45:21.549Z,65.23
2017-04-17T02:46:22.143Z,65.32
2017-04-17T02:47:22.740Z,65.23
2017-04-17T02:48:23.351Z,65.13
2017-04-17T02:49:23.962Z,65.42
2017-04-17T02:50:24.557Z,65.61
2017-04-17T02:51:25.154Z,65.32
2017-04-17T02:52:25.768Z,65.42
2017-04-17T02:53:26.376Z,65.03
2017-04-17T02:54:26.988Z,65.03
2017-04-17T02:55:27.583Z,65.03
2017-04-17T02:56:28.201Z,65.13
2017-04-17T02:57:28.957Z,65.23
2017-04-17T02:58:29.553Z,65.23
2017-04-17T02:59:30.148Z,65.13
2017-04-17T03:00:30.743Z,65.03
2017-04-17T03:01:31.339Z,65.13
2017-04-17T03:02:31.934Z,64.94
2017-04-17T03:03:32.530Z,64.75
2017-04-17T03:04:33.125Z,64.75
2017-04-17T03:05:33.721Z,64.94
2017-04-17T03:06:34.318Z,64.94
2017-04-17T03:07:34.912Z,64.94
2017-04-17T03:08:35.514Z,64.94
2017-04-17T03:09:36.109Z,64.65
2017-04-17T03:10:36.720Z,64.94
2017-04-17T03:11:37.320Z,65.03
2017-04-17T03:12:37.915Z,65.13
2017-04-17T03:13:38.512Z,65.32
2017-04-17T03:14:39.108Z,65.23
2017-04-17T03:15:39.703Z,65.13
2017-04-17T03:16:40.304Z,65.23
2017-04-17T03:17:40.899Z,65.23
2017-04-17T03:18:41.509Z,64.84
2017-04-17T03:19:42.105Z,64.94
2017-04-17T03:20:42.706Z,64.94
2017-04-17T03:21:43.322Z,65.03
2017-04-17T03:22:43.916Z,64.94
2017-04-17T03:23:44.510Z,64.94
2017-04-17T03:24:45.165Z,64.94
2017-04-17T03:25:45.762Z,65.03
2017-04-17T03:26:46.357Z,65.03
2017-04-17T03:27:46.953Z,65.03
2017-04-17T03:28:47.555Z,64.94
2017-04-17T03:29:48.153Z,64.90
2017-04-17T03:30:48.746Z,64.72
2017-04-17T03:31:49.413Z,65.29
2017-04-17T03:32:50.071Z,65.00
2017-04-17T03:33:50.663Z,65.00
2017-04-17T03:34:51.259Z,65.58
2017-04-17T03:35:51.876Z,65.48
2017-04-17T03:36:53.199Z,65.38
2017-04-17T03:37:53.796Z,65.38
2017-04-17T03:38:54.405Z,65.29
2017-04-17T03:39:55.005Z,65.48
2017-04-17T03:40:55.615Z,65.38
2017-04-17T03:41:56.210Z,65.58
2017-04-17T03:42:56.827Z,65.29
2017-04-17T03:43:57.420Z,65.58
2017-04-17T03:44:58.015Z,65.58
2017-04-17T03:45:58.625Z,65.48
2017-04-17T03:46:59.229Z,65.51
2017-04-17T03:47:59.849Z,65.29
2017-04-17T03:49:00.444Z,65.48
2017-04-17T03:50:01.045Z,65.42
2017-04-17T03:51:01.640Z,65.58
2017-04-17T03:52:02.234Z,65.80
2017-04-17T03:53:02.830Z,65.48
2017-04-17T03:54:03.424Z,65.58
2017-04-17T03:55:04.018Z,65.67
2017-04-17T03:56:04.620Z,65.48
2017-04-17T03:57:05.212Z,65.77
2017-04-17T03:58:05.806Z,65.48
2017-04-17T03:59:06.402Z,65.58
2017-04-17T04:00:06.996Z,65.48
2017-04-17T04:01:07.598Z,65.67
2017-04-17T04:02:08.208Z,65.48
2017-04-17T04:03:08.806Z,65.58
2017-04-17T04:04:09.398Z,65.67
2017-04-17T04:05:10.053Z,65.58
2017-04-17T04:06:10.663Z,65.58
2017-04-17T04:07:11.257Z,65.29
2017-04-17T04:08:11.858Z,65.58
2017-04-17T04:09:12.467Z,65.67
2017-04-17T04:10:13.077Z,65.86
2017-04-17T04:11:13.670Z,65.67
2017-04-17T04:12:14.273Z,65.77
2017-04-17T04:13:14.863Z,65.48
2017-04-17T04:14:15.468Z,65.77
2017-04-17T04:15:16.078Z,66.33
2017-04-17T04:16:16.668Z,65.86
2017-04-17T04:17:17.264Z,65.48
2017-04-17T04:18:17.862Z,65.67
2017-04-17T04:19:18.452Z,65.77
2017-04-17T04:20:19.052Z,65.77
2017-04-17T04:21:19.649Z,66.14
2017-04-17T04:22:20.248Z,66.05
2017-04-17T04:23:20.840Z,65.77
2017-04-17T04:24:21.436Z,65.77
2017-04-17T04:25:22.029Z,65.77
2017-04-17T04:26:22.631Z,66.14
2017-04-17T04:27:23.241Z,65.86
2017-04-17T04:28:23.839Z,65.67
2017-04-17T04:29:24.440Z,66.53
2017-04-17T04:30:25.031Z,66.14
2017-04-17T04:31:25.624Z,66.33
2017-04-17T04:32:26.221Z,66.33
2017-04-17T04:33:26.822Z,66.24
2017-04-17T04:34:27.414Z,66.33
2017-04-17T04:35:28.015Z,66.43
2017-04-17T04:36:28.607Z,66.24
2017-04-17T04:37:29.202Z,66.33
2017-04-17T04:38:29.796Z,66.24
2017-04-17T04:39:30.394Z,66.14
2017-04-17T04:40:30.988Z,66.14
2017-04-17T04:41:31.584Z,66.05
2017-04-17T04:42:32.182Z,66.24
2017-04-17T04:43:32.799Z,66.24
2017-04-17T04:44:33.400Z,66.33
2017-04-17T04:45:34.012Z,66.14
2017-04-17T04:46:34.622Z,66.33
2017-04-17T04:47:35.220Z,66.33
2017-04-17T04:48:35.854Z,66.24
2017-04-17T04:49:36.451Z,66.24
2017-04-17T04:50:37.061Z,66.33
2017-04-17T04:51:37.714Z,66.33
2017-04-17T04:52:38.312Z,66.14
2017-04-17T04:53:38.915Z,66.62
2017-04-17T04:54:39.508Z,66.62
2017-04-17T04:55:40.112Z,66.53
2017-04-17T04:56:40.724Z,66.62
2017-04-17T04:57:41.341Z,66.53
2017-04-17T04:58:41.936Z,66.53
2017-04-17T04:59:42.531Z,66.43
2017-04-17T05:00:43.129Z,66.24
2017-04-17T05:01:43.730Z,66.05
2017-04-17T05:02:44.327Z,66.14
2017-04-17T05:03:44.924Z,66.53
2017-04-17T05:04:45.528Z,66.33
2017-04-17T05:05:46.124Z,66.24
2017-04-17T05:06:46.777Z,66.24
2017-04-17T05:07:47.393Z,66.33
2017-04-17T05:08:47.992Z,66.05
2017-04-17T05:09:48.589Z,66.62
2017-04-17T05:10:49.187Z,66.53
2017-04-17T05:11:49.800Z,66.53
2017-04-17T05:12:50.397Z,66.33
2017-04-17T05:13:50.997Z,66.62
2017-04-17T05:14:51.593Z,65.95
2017-04-17T05:15:52.196Z,66.05
2017-04-17T05:16:52.789Z,65.95
2017-04-17T05:17:53.388Z,65.95
2017-04-17T05:18:53.985Z,65.86
2017-04-17T05:19:54.603Z,65.77
2017-04-17T05:20:55.202Z,65.67
2017-04-17T05:21:55.797Z,65.86
2017-04-17T05:22:56.397Z,66.05
2017-04-17T05:23:57.012Z,65.95
2017-04-17T05:24:57.699Z,65.77
2017-04-17T05:25:58.304Z,65.95
2017-04-17T05:26:58.900Z,65.95
2017-04-17T05:27:59.497Z,66.05
2017-04-17T05:29:00.094Z,66.43
2017-04-17T05:30:00.693Z,65.86
2017-04-17T05:31:01.290Z,65.67
2017-04-17T05:32:01.887Z,65.67
2017-04-17T05:33:02.490Z,65.77
2017-04-17T05:34:03.103Z,65.58
2017-04-17T05:35:03.706Z,65.58
2017-04-17T05:36:04.303Z,65.67
2017-04-17T05:37:04.899Z,66.24
2017-04-17T05:38:05.496Z,65.86
2017-04-17T05:39:06.094Z,65.86
2017-04-17T05:40:06.764Z,65.86
2017-04-17T05:41:07.384Z,65.95
2017-04-17T05:42:07.981Z,66.43
2017-04-17T05:43:08.580Z,66.24
2017-04-17T05:44:09.177Z,66.33
2017-04-17T05:45:09.794Z,66.05
2017-04-17T05:46:10.390Z,66.43
2017-04-17T05:47:10.994Z,66.53
2017-04-17T05:48:11.606Z,66.33
2017-04-17T05:49:12.205Z,66.72
2017-04-17T05:50:12.801Z,66.72
2017-04-17T05:51:13.401Z,66.53
2017-04-17T05:52:14.004Z,66.43
2017-04-17T05:53:14.599Z,66.43
2017-04-17T05:54:15.203Z,66.72
2017-04-17T05:55:15.796Z,66.53
2017-04-17T05:56:16.396Z,66.53
2017-04-17T05:57:17.067Z,66.27
2017-04-17T05:58:17.666Z,66.27
2017-04-17T05:59:18.270Z,66.18
2017-04-17T06:00:18.868Z,66.56
2017-04-17T06:01:19.467Z,66.56
2017-04-17T06:02:20.065Z,66.46
2017-04-17T06:03:20.662Z,66.56
2017-04-17T06:04:21.267Z,65.89
2017-04-17T06:05:21.864Z,66.56
2017-04-17T06:06:22.461Z,66.08
2017-04-17T06:07:23.059Z,66.08
2017-04-17T06:08:23.662Z,66.46
2017-04-17T06:09:24.266Z,66.46
2017-04-17T06:10:24.879Z,65.51
2017-04-17T06:11:25.478Z,65.80
2017-04-17T06:12:26.085Z,65.89
2017-04-17T06:13:26.685Z,65.70
2017-04-17T06:14:27.300Z,65.42
2017-04-17T06:15:27.898Z,65.51
2017-04-17T06:16:28.497Z,65.70
2017-04-17T06:17:29.141Z,65.70
2017-04-17T06:18:29.745Z,65.70
2017-04-17T06:19:30.342Z,65.80
2017-04-17T06:20:30.942Z,65.61
2017-04-17T06:21:31.540Z,65.61
2017-04-17T06:22:32.153Z,65.32
2017-04-17T06:23:32.760Z,65.36
2017-04-17T06:24:33.356Z,64.97
2017-04-17T06:25:33.962Z,65.36
2017-04-17T06:26:34.561Z,64.87
2017-04-17T06:27:35.159Z,65.36
2017-04-17T06:28:35.785Z,65.26
2017-04-17T06:29:36.387Z,64.97
2017-04-17T06:30:36.992Z,65.26
2017-04-17T06:31:37.588Z,65.36
2017-04-17T06:32:38.228Z,65.26
2017-04-17T06:33:38.878Z,64.78
2017-04-17T06:34:39.482Z,65.16
2017-04-17T06:35:40.078Z,64.97
2017-04-17T06:36:40.678Z,64.97
2017-04-17T06:37:41.284Z,65.07
2017-04-17T06:38:41.881Z,64.97
2017-04-17T06:39:42.498Z,64.69
2017-04-17T06:40:43.098Z,64.40
2017-04-17T06:41:43.701Z,64.69
2017-04-17T06:42:44.301Z,64.31
2017-04-17T06:43:44.900Z,64.78
2017-04-17T06:44:45.502Z,64.50
2017-04-17T06:45:46.102Z,64.53
2017-04-17T06:46:46.704Z,64.91
2017-04-17T06:47:47.321Z,64.91
2017-04-17T06:48:47.922Z,64.62
2017-04-17T06:49:48.567Z,64.53
2017-04-17T06:50:49.170Z,64.34
2017-04-17T06:51:49.795Z,64.24
2017-04-17T06:52:50.393Z,64.24
2017-04-17T06:53:50.997Z,64.43
2017-04-17T06:54:51.594Z,64.34
2017-04-17T06:55:52.201Z,64.62
2017-04-17T06:56:52.805Z,65.00
2017-04-17T06:57:53.403Z,64.34
2017-04-17T06:58:54.010Z,64.24
2017-04-17T06:59:54.607Z,64.05
2017-04-17T07:00:55.214Z,63.96
2017-04-17T07:01:55.812Z,64.05
2017-04-17T07:02:56.427Z,63.96
2017-04-17T07:03:57.032Z,64.24
2017-04-17T07:04:57.644Z,63.96
2017-04-17T07:05:58.267Z,63.76
2017-04-17T07:06:58.938Z,63.86
2017-04-17T07:07:59.559Z,63.80
2017-04-17T07:09:00.158Z,63.80
2017-04-17T07:10:00.758Z,63.67
2017-04-17T07:11:01.362Z,63.80
2017-04-17T07:12:01.975Z,64.09
2017-04-17T07:13:02.576Z,63.99
2017-04-17T07:14:03.175Z,63.60
2017-04-17T07:15:03.803Z,63.67
2017-04-17T07:16:04.401Z,63.57
2017-04-17T07:17:05.002Z,63.57
2017-04-17T07:18:05.604Z,63.67
2017-04-17T07:19:06.204Z,63.76
2017-04-17T07:20:06.804Z,63.76
2017-04-17T07:21:07.420Z,63.57
2017-04-17T07:22:08.019Z,63.39
2017-04-17T07:23:08.620Z,63.76
2017-04-17T07:24:09.241Z,63.76
2017-04-17T07:25:09.835Z,63.86
2017-04-17T07:26:10.437Z,63.67
2017-04-17T07:27:11.041Z,63.29
2017-04-17T07:28:11.638Z,63.67
2017-04-17T07:29:12.239Z,63.57
2017-04-17T07:30:12.839Z,63.76
2017-04-17T07:31:13.448Z,63.67
2017-04-17T07:32:14.049Z,63.76
2017-04-17T07:33:14.649Z,63.20
2017-04-17T07:34:15.251Z,62.91
2017-04-17T07:35:15.875Z,63.20
2017-04-17T07:36:16.474Z,62.94
2017-04-17T07:37:17.083Z,63.23
2017-04-17T07:38:17.680Z,62.84
2017-04-17T07:39:18.287Z,62.94
2017-04-17T07:40:18.896Z,63.23
2017-04-17T07:41:19.513Z,63.13
2017-04-17T07:42:20.121Z,62.65
2017-04-17T07:43:20.724Z,62.94
2017-04-17T07:44:21.340Z,63.26
2017-04-17T07:45:21.943Z,62.40
2017-04-17T07:46:22.547Z,62.88
2017-04-17T07:47:23.150Z,62.11
2017-04-17T07:48:23.751Z,62.02
2017-04-17T07:49:24.360Z,61.92
2017-04-17T07:50:24.959Z,61.83
2017-04-17T07:51:25.565Z,61.66
2017-04-17T07:52:26.181Z,61.76
2017-04-17T07:53:26.785Z,62.05
2017-04-17T07:54:27.390Z,61.47
2017-04-17T07:55:27.995Z,61.47
2017-04-17T07:56:28.595Z,61.00
2017-04-17T07:57:29.204Z,61.00
2017-04-17T07:58:29.804Z,61.29
2017-04-17T07:59:30.410Z,61.03
2017-04-17T08:00:31.014Z,60.84
2017-04-17T08:01:31.621Z,61.22
2017-04-17T08:02:32.223Z,60.74
2017-04-17T08:03:32.828Z,60.46
2017-04-17T08:04:33.429Z,60.46
2017-04-17T08:05:34.034Z,59.98
2017-04-17T08:06:34.646Z,59.81
2017-04-17T08:07:35.252Z,60.20
2017-04-17T08:08:35.853Z,59.72
2017-04-17T08:09:36.456Z,59.63
2017-04-17T08:10:37.061Z,59.27
2017-04-17T08:11:37.664Z,59.08
2017-04-17T08:12:38.270Z,59.37
2017-04-17T08:13:38.899Z,58.80
2017-04-17T08:14:39.548Z,58.80
2017-04-17T08:15:40.153Z,59.18
2017-04-17T08:16:40.765Z,58.80
2017-04-17T08:17:41.366Z,58.61
2017-04-17T08:18:41.986Z,58.92
2017-04-17T08:19:42.589Z,59.01
2017-04-17T08:20:43.244Z,57.87
2017-04-17T08:21:43.849Z,57.87
2017-04-17T08:22:44.454Z,58.06
2017-04-17T08:23:45.059Z,57.77
2017-04-17T08:24:45.666Z,57.58
2017-04-17T08:25:46.271Z,57.77
2017-04-17T08:26:46.880Z,57.51
2017-04-17T08:27:47.483Z,57.61
2017-04-17T08:28:48.087Z,57.70
2017-04-17T08:29:48.695Z,57.06
2017-04-17T08:30:49.309Z,56.87
2017-04-17T08:31:49.916Z,56.52
2017-04-17T08:32:50.522Z,56.61
2017-04-17T08:33:51.134Z,55.40
2017-04-17T08:34:51.739Z,55.42
2017-04-17T08:35:52.348Z,55.55
2017-04-17T08:36:52.972Z,54.35
2017-04-17T08:37:53.580Z,53.25
2017-04-17T08:38:54.191Z,52.32
2017-04-17T08:39:54.805Z,51.67
2017-04-17T08:40:55.424Z,50.66
2017-04-17T08:41:56.031Z,49.73
2017-04-17T08:42:56.642Z,48.90
2017-04-17T08:43:57.263Z,48.06
2017-04-17T08:44:58.144Z,47.33
2017-04-17T08:45:58.759Z,46.39
2017-04-17T08:46:59.375Z,45.74
2017-04-17T08:47:59.990Z,44.96
2017-04-17T08:49:00.606Z,44.48
2017-04-17T08:50:01.221Z,44.48
2017-04-17T08:51:02.046Z,44.17
2017-04-17T08:52:02.680Z,44.36
2017-04-17T08:53:03.293Z,44.26
2017-04-17T08:54:03.909Z,44.65
2017-04-17T08:55:04.525Z,44.36
2017-04-17T08:56:05.157Z,44.26
2017-04-17T08:57:05.788Z,43.80
2017-04-17T08:58:06.410Z,43.15
2017-04-17T08:59:07.025Z,42.66
2017-04-17T09:00:07.642Z,42.57
2017-04-17T09:01:08.257Z,41.91
2017-04-17T09:02:08.875Z,41.79
2017-04-17T09:03:09.511Z,42.37
2017-04-17T09:04:10.125Z,41.70
2017-04-17T09:05:10.742Z,41.58
2017-04-17T09:06:11.360Z,41.48
2017-04-17T09:07:12.225Z,41.67
2017-04-17T09:08:12.842Z,41.00
2017-04-17T09:09:13.457Z,40.90
2017-04-17T09:10:14.081Z,40.40
2017-04-17T09:11:14.694Z,40.09
2017-04-17T09:12:15.308Z,40.38
2017-04-17T09:13:15.945Z,40.36
2017-04-17T09:14:16.810Z,40.53
2017-04-17T09:15:17.429Z,40.63
2017-04-17T09:16:18.039Z,41.02
2017-04-17T09:17:18.674Z,41.30
2017-04-17T09:18:19.285Z,41.30
2017-04-17T09:19:19.903Z,41.09
2017-04-17T09:20:20.518Z,41.19
2017-04-17T09:21:21.134Z,41.19
2017-04-17T09:22:21.751Z,41.46
2017-04-17T09:23:22.368Z,40.69
2017-04-17T09:24:22.977Z,40.78
2017-04-17T09:25:23.606Z,40.76
2017-04-17T09:26:24.234Z,41.13
2017-04-17T09:27:24.847Z,40.74
2017-04-17T09:28:25.461Z,41.03
2017-04-17T09:29:26.073Z,41.30
2017-04-17T09:30:26.684Z,41.59
2017-04-17T09:31:27.311Z,41.56
2017-04-17T09:32:27.921Z,41.66
2017-04-17T09:33:28.532Z,41.55
2017-04-17T09:34:29.161Z,42.03
2017-04-17T09:35:29.771Z,41.74
2017-04-17T09:36:30.387Z,41.74
2017-04-17T09:37:31.011Z,42.41
2017-04-17T09:38:31.622Z,42.32
2017-04-17T09:39:32.231Z,42.20
2017-04-17T09:40:32.842Z,42.00
2017-04-17T09:41:33.452Z,41.91
2017-04-17T09:42:34.066Z,42.39
2017-04-17T09:43:34.692Z,42.37
2017-04-17T09:44:35.300Z,42.18
2017-04-17T09:45:35.914Z,42.18
2017-04-17T09:46:36.525Z,42.18
2017-04-17T09:47:37.132Z,42.35
2017-04-17T09:48:37.741Z,42.16
2017-04-17T09:49:38.351Z,42.35
2017-04-17T09:50:38.966Z,42.43
2017-04-17T09:51:39.590Z,42.61
2017-04-17T09:52:40.199Z,42.71
2017-04-17T09:53:40.809Z,42.90
2017-04-17T09:54:41.438Z,42.98
2017-04-17T09:55:42.045Z,42.98
2017-04-17T09:56:42.651Z,43.55
2017-04-17T09:57:43.257Z,43.53
2017-04-17T09:58:43.863Z,43.91
2017-04-17T09:59:44.468Z,43.91
2017-04-17T10:00:45.075Z,44.27
2017-04-17T10:01:45.680Z,44.27
2017-04-17T10:02:46.291Z,44.56
2017-04-17T10:03:46.894Z,44.66
2017-04-17T10:04:47.505Z,44.54
2017-04-17T10:05:48.105Z,45.21
2017-04-17T10:06:48.715Z,45.12
2017-04-17T10:07:49.316Z,45.21
2017-04-17T10:08:49.922Z,45.31
2017-04-17T10:09:50.542Z,44.83
2017-04-17T10:10:51.163Z,45.19
2017-04-17T10:11:51.765Z,45.76
2017-04-17T10:12:52.369Z,45.86
2017-04-17T10:13:52.978Z,45.86
2017-04-17T10:14:53.680Z,46.22
2017-04-17T10:15:54.285Z,46.22
2017-04-17T10:16:54.886Z,46.61
2017-04-17T10:17:55.489Z,46.80
2017-04-17T10:18:56.114Z,46.89
2017-04-17T10:19:56.716Z,47.18
2017-04-17T10:20:57.321Z,46.61
2017-04-17T10:21:57.925Z,46.96
2017-04-17T10:22:58.550Z,47.16
2017-04-17T10:23:59.150Z,47.34
2017-04-17T10:24:59.755Z,47.44
2017-04-17T10:26:00.374Z,47.53
2017-04-17T10:27:00.996Z,47.82
2017-04-17T10:28:01.603Z,48.11
2017-04-17T10:29:02.205Z,47.92
2017-04-17T10:30:02.813Z,47.82
2017-04-17T10:31:03.413Z,48.21
2017-04-17T10:32:04.017Z,48.78
2017-04-17T10:33:04.620Z,48.39
2017-04-17T10:34:05.225Z,48.49
2017-04-17T10:35:05.831Z,48.49
2017-04-17T10:36:06.439Z,48.49
2017-04-17T10:37:07.046Z,48.68
2017-04-17T10:38:07.654Z,48.68
2017-04-17T10:39:08.255Z,48.59
2017-04-17T10:40:08.860Z,48.59
2017-04-17T10:41:09.538Z,48.30
2017-04-17T10:42:10.157Z,48.78
2017-04-17T10:43:10.760Z,48.78
2017-04-17T10:44:11.365Z,48.59
2017-04-17T10:45:11.968Z,48.61
2017-04-17T10:46:12.580Z,48.52
2017-04-17T10:47:13.183Z,48.33
2017-04-17T10:48:13.787Z,48.39
2017-04-17T10:49:14.397Z,48.61
2017-04-17T10:50:14.999Z,48.71
2017-04-17T10:51:15.607Z,48.80
2017-04-17T10:52:16.210Z,48.90
2017-04-17T10:53:16.823Z,48.80
2017-04-17T10:54:17.448Z,48.71
2017-04-17T10:55:18.056Z,48.80
2017-04-17T10:56:18.659Z,48.80
2017-04-17T10:57:19.264Z,48.61
2017-04-17T10:58:19.868Z,48.54
2017-04-17T10:59:20.473Z,49.40
2017-04-17T11:00:21.083Z,48.73
2017-04-17T11:01:21.686Z,48.83
2017-04-17T11:02:22.292Z,48.35
2017-04-17T11:03:22.898Z,48.64
2017-04-17T11:04:23.507Z,48.38
2017-04-17T11:05:24.131Z,48.07
2017-04-17T11:06:24.733Z,48.07
2017-04-17T11:07:25.338Z,48.07
2017-04-17T11:08:25.944Z,48.83
2017-04-17T11:09:26.549Z,48.73
2017-04-17T11:10:27.156Z,47.97
2017-04-17T11:11:27.762Z,48.73
2017-04-17T11:12:28.372Z,48.54
2017-04-17T11:13:28.974Z,48.73
2017-04-17T11:14:29.586Z,48.93
2017-04-17T11:15:30.188Z,48.44
2017-04-17T11:16:30.795Z,48.64
2017-04-17T11:17:31.400Z,48.54
2017-04-17T11:18:32.227Z,48.83
2017-04-17T11:19:32.837Z,47.87
2017-04-17T11:20:33.457Z,48.07
2017-04-17T11:21:34.064Z,47.89
2017-04-17T11:22:34.675Z,47.80
2017-04-17T11:23:35.283Z,47.89
2017-04-17T11:24:35.911Z,47.99
2017-04-17T11:25:36.510Z,47.51
2017-04-17T11:26:37.114Z,47.87
2017-04-17T11:27:37.719Z,47.49
2017-04-17T11:28:38.330Z,47.68
2017-04-17T11:29:38.933Z,47.87
2017-04-17T11:30:39.535Z,47.49
2017-04-17T11:31:40.147Z,47.49
2017-04-17T11:32:40.771Z,47.39
2017-04-17T11:33:41.373Z,47.58
2017-04-17T11:34:41.985Z,47.49
2017-04-17T11:35:42.612Z,47.68
2017-04-17T11:36:43.218Z,47.30
2017-04-17T11:37:43.818Z,47.39
2017-04-17T11:38:44.422Z,47.58
2017-04-17T11:39:45.033Z,47.58
2017-04-17T11:40:45.636Z,47.49
2017-04-17T11:41:46.255Z,47.27
2017-04-17T11:42:46.873Z,47.47
2017-04-17T11:43:47.479Z,47.27
2017-04-17T11:44:48.103Z,47.56
2017-04-17T11:45:48.706Z,47.56
2017-04-17T11:46:49.317Z,47.37
2017-04-17T11:47:49.917Z,47.75
2017-04-17T11:48:50.538Z,47.75
2017-04-17T11:49:51.140Z,47.75
2017-04-17T11:50:51.743Z,47.37
2017-04-17T11:51:52.353Z,47.75
2017-04-17T11:52:52.977Z,47.56
2017-04-17T11:53:53.578Z,47.75
2017-04-17T11:54:54.187Z,47.85
2017-04-17T11:55:54.909Z,47.66
2017-04-17T11:56:55.517Z,47.75
2017-04-17T11:57:56.116Z,47.75
2017-04-17T11:58:56.721Z,47.85
2017-04-17T11:59:57.326Z,47.85
2017-04-17T12:00:57.937Z,47.37
2017-04-17T12:01:58.540Z,47.75
2017-04-17T12:02:59.161Z,47.66
2017-04-17T12:03:59.765Z,47.56
2017-04-17T12:05:00.367Z,47.56
2017-04-17T12:06:00.971Z,47.37
2017-04-17T12:07:01.574Z,47.56
2017-04-17T12:08:02.180Z,47.75
2017-04-17T12:09:02.783Z,47.75
2017-04-17T12:10:03.385Z,47.66
2017-04-17T12:11:03.989Z,47.47
2017-04-17T12:12:04.609Z,47.66
2017-04-17T12:13:05.217Z,47.75
2017-04-17T12:14:05.817Z,47.56
2017-04-17T12:15:06.431Z,47.66
2017-04-17T12:16:07.035Z,47.58
2017-04-17T12:17:07.636Z,47.08
2017-04-17T12:18:08.239Z,47.08
2017-04-17T12:19:08.841Z,46.98
2017-04-17T12:20:09.444Z,46.61
2017-04-17T12:21:10.067Z,47.08
2017-04-17T12:22:10.669Z,46.96
2017-04-17T12:23:11.284Z,47.53
2017-04-17T12:24:11.889Z,47.25
2017-04-17T12:25:12.490Z,47.44
2017-04-17T12:26:13.097Z,47.44
2017-04-17T12:27:13.699Z,47.63
2017-04-17T12:28:14.306Z,47.44
2017-04-17T12:29:14.913Z,47.53
2017-04-17T12:30:15.535Z,47.42
2017-04-17T12:31:16.136Z,47.23
2017-04-17T12:32:16.739Z,47.61
2017-04-17T12:33:17.341Z,47.61
2017-04-17T12:34:17.944Z,47.61
2017-04-17T12:35:18.550Z,47.61
2017-04-17T12:36:19.170Z,47.52
2017-04-17T12:37:19.778Z,47.42
2017-04-17T12:38:20.377Z,47.61
2017-04-17T12:39:20.984Z,47.61
2017-04-17T12:40:21.601Z,47.52
2017-04-17T12:41:22.212Z,47.71
2017-04-17T12:42:22.828Z,48.09
2017-04-17T12:43:23.437Z,47.99
2017-04-17T12:44:24.039Z,48.75
2017-04-17T12:45:24.655Z,48.66
2017-04-17T12:46:25.258Z,48.57
2017-04-17T12:47:25.861Z,48.66
2017-04-17T12:48:26.463Z,48.57
2017-04-17T12:49:27.066Z,48.47
2017-04-17T12:50:27.671Z,48.57
2017-04-17T12:51:28.295Z,48.47
2017-04-17T12:52:28.897Z,48.57
2017-04-17T12:53:29.501Z,48.66
2017-04-17T12:54:30.106Z,48.57
2017-04-17T12:55:30.712Z,48.38
2017-04-17T12:56:31.311Z,48.66
2017-04-17T12:57:31.920Z,48.57
2017-04-17T12:58:32.522Z,48.47
2017-04-17T12:59:33.124Z,48.47
2017-04-17T13:00:33.729Z,48.57